Avoca, Indiana
Current Conditions -  °F | °C
As of 4:24 AM on Monday 24 Nov 2014 (Local Time) from KBMG Reporting Station
Overcast Overcast  
Wind Chill: 58°   Ceiling: 1500
Heat Index: 58°   Visibility: 10mi
Dew Point: 55°   Wind: 21mph
Humidity: 90%   Direction: 200°SSW
Pressure: 29.23"   Gusts: 26mph
Location:  38.91°N, 86.55°W
Report Text: KBMG 240924Z AUTO 20018G23KT 10SM OVC015 14/13 A2923 RMK AO2 LTG DSNT NW RAE13 P0000 T01440128
Loading
Personal Weather Stations






























Interactive Weather Map New forecast layout! Learn more

10-Day Weather Forecast

Advertisements
Track Severe Weather on mobile